METAR AND TAF INFORMATION
METAR FOR VTBU
ADDS - METARS form results

(2121 UTC 26 March 2019)
Data provider http://aviationweather.gov/metar/data/
 
METAR text: VTBU 262100Z 01003KT 5000 BR FEW020CB 26/24 Q1012 NOSIG
Conditions at: VTBU (RAYONG/U-TAPHAO , TH) observed 2100 UTC 26 March 2019
Temperature: 26.0°C (79°F)
Dewpoint: 24.0°C (75°F) [RH = 89%]
Pressure (altimeter): 29.88 inches Hg (1012.0 mb)
Winds: from the N (10 degrees) at 3 MPH (3 knots; 1.5 m/s)
Visibility: 3 miles ( 5 km)
Ceiling: at least 12,000 feet AGL
Clouds: few clouds at 2000 feet AGL
Weather: BR  (mist)

METAR text: VTBU 262030Z 32003KT 5000 BR FEW020 26/24 Q1012 NOSIG
Conditions at: VTBU (RAYONG/U-TAPHAO , TH) observed 2030 UTC 26 March 2019
Temperature: 26.0°C (79°F)
Dewpoint: 24.0°C (75°F) [RH = 89%]
Pressure (altimeter): 29.88 inches Hg (1012.0 mb)
Winds: from the NW (320 degrees) at 3 MPH (3 knots; 1.5 m/s)
Visibility: 3 miles ( 5 km)
Ceiling: at least 12,000 feet AGL
Clouds: few clouds at 2000 feet AGL
Weather: BR  (mist)

Forecast for: VTBU (RAYONG/U-TAPHAO , TH)
Text: TAF VTBU 261700Z 2618/2718 VRB02KT 5000 BR FEW020
Forecast period: 1800 UTC 26 March 2019 to 0000 UTC 27 March 2019
Forecast type: FROM: standard forecast or significant change
Winds: variable direction winds at 2 MPH (2 knots; 1.0 m/s)
Visibility: 3 miles (5 km)
Ceiling: at least 12,000 feet AGL
Clouds: few clouds at 2000 feet AGL
Weather: BR  (mist)
Text: BECMG 2700/2702 18008KT 8000
Forecast period: 0000 to 1100 UTC 27 March 2019
Forecast type: BECOMING: Conditions expected to become as follows by 0200 UTC 27 March 2019
Winds: from the S (180 degrees) at 9 MPH (8 knots; 4.1 m/s)
Visibility: 5 miles (8 km)
Ceiling: at least 12,000 feet AGL
Clouds: few clouds at 2000 feet AGL
Weather: BR  (mist)
Text: TEMPO 2707/2711 FEW020CB
Forecast period: 0700 to 1100 UTC 27 March 2019
Forecast type: TEMPORARY: The following changes expected for less than half the time period
Visibility: missing
Ceiling: at least 12,000 feet AGL
Clouds: few clouds at 2000 feet AGL
Weather: no significant weather forecast for this period
Text: BECMG 2711/2713 19004KT 6000
Forecast period: 1100 to 1800 UTC 27 March 2019
Forecast type: BECOMING: Conditions expected to become as follows by 1300 UTC 27 March 2019
Winds: from the S (190 degrees) at 5 MPH (4 knots; 2.1 m/s)
Visibility: 4 miles (6 km)
Ceiling: at least 12,000 feet AGL
Clouds: few clouds at 2000 feet AGL
Weather: BR  (mist)

 AIRPORT MAP

 RUNWAY INFORMATION

 AIRPORT FREQUENCIES
Type APP Name APP Frequency 119.7 MHZ
Type GND Name GND Frequency 121.9 MHZ
Type TWR Name TWR Frequency 118.3 MHZ

 AIRPORT NEAR NAVIGATION AIDS
Type TACAN Name U Taphao Frequency 115800 KHZ
Type VOR-DME Name U Taphao Frequency 110800 KHZ
Type NDB Name U Taphao Frequency 414 KHZ



2018 Air Astana Virtual Airline